Time;durP1;ratioP1;P1;durP2;ratioP2;P2;SDS_P1;SDS_P2;PMS_P1;PMS_P2;Temp;Humidity;BMP_temperature;BMP_pressure;BME280_temperature;BME280_humidity;BME280_pressure;Samples;Min_cycle;Max_cycle;Signal;HPM_P1;HPM_P2
2021/08/21 00:01:13;;;;;;;10.40;9.40;;;;;;;22.81;51.58;95611.38;5014150;28;20132;-64
2021/08/21 00:03:38;;;;;;;9.35;8.45;;;;;;;22.75;51.61;95605.53;5029879;28;20034;-63
2021/08/21 00:06:04;;;;;;;9.73;8.77;;;;;;;22.73;51.60;95607.06;5029498;28;20601;-64
2021/08/21 00:08:30;;;;;;;11.30;10.20;;;;;;;22.76;51.80;95612.50;5029563;28;20033;-63
2021/08/21 00:10:56;;;;;;;10.23;9.23;;;;;;;22.74;51.56;95612.09;5029617;28;20095;-64
2021/08/21 00:13:21;;;;;;;10.43;9.45;;;;;;;22.72;51.74;95610.88;5012042;28;20025;-64
2021/08/21 00:15:47;;;;;;;10.75;9.57;;;;;;;22.67;51.79;95608.50;5031168;28;20028;-64
2021/08/21 00:18:12;;;;;;;11.20;10.07;;;;;;;22.71;51.64;95614.75;5029690;28;20033;-64
2021/08/21 00:20:38;;;;;;;9.75;8.93;;;;;;;22.65;51.75;95613.53;5011442;28;20045;-64
2021/08/21 00:23:03;;;;;;;11.10;10.15;;;;;;;22.63;51.87;95611.19;5029439;28;20041;-64
2021/08/21 00:25:29;;;;;;;11.35;10.23;;;;;;;22.58;51.99;95609.59;5028414;28;20535;-63
2021/08/21 00:27:54;;;;;;;12.00;10.05;;;;;;;22.60;51.75;95613.88;5031132;28;20029;-63
2021/08/21 00:30:20;;;;;;;10.77;9.63;;;;;;;22.54;51.84;95610.69;5011630;28;20037;-63
2021/08/21 00:32:45;;;;;;;10.38;9.32;;;;;;;22.46;52.15;95601.69;5029119;28;20123;-63
2021/08/21 00:35:11;;;;;;;9.35;8.48;;;;;;;22.42;52.08;95606.31;5029002;28;20033;-64
2021/08/21 00:37:37;;;;;;;9.88;8.90;;;;;;;22.37;52.05;95600.41;5011337;28;20451;-63
2021/08/21 00:40:04;;;;;;;9.23;8.32;;;;;;;22.41;51.95;95609.38;5030651;28;20037;-63
2021/08/21 00:42:30;;;;;;;5.35;4.57;;;;;;;22.34;52.00;95607.34;5028966;28;20078;-64
2021/08/21 00:44:55;;;;;;;9.57;8.70;;;;;;;22.30;51.93;95601.88;5028801;28;20069;-64
2021/08/21 00:47:21;;;;;;;8.35;7.65;;;;;;;22.18;52.03;95591.28;5011292;28;20041;-64
2021/08/21 00:49:49;;;;;;;8.82;7.10;;;;;;;22.20;51.80;95590.91;5011187;28;20029;-64
2021/08/21 00:52:18;;;;;;;10.60;8.77;;;;;;;22.19;51.99;95590.13;5031031;28;20028;-64
2021/08/21 00:54:44;;;;;;;7.40;6.70;;;;;;;22.22;51.86;95588.63;5014117;28;20030;-64
2021/08/21 00:57:12;;;;;;;8.48;7.25;;;;;;;22.17;51.87;95587.00;5028663;28;20406;-64
2021/08/21 00:59:39;;;;;;;6.70;6.03;;;;;;;22.24;51.76;95597.94;5028905;28;20069;-64
2021/08/21 01:02:05;;;;;;;7.82;7.07;;;;;;;22.09;51.85;95585.31;5011031;28;20037;-64
2021/08/21 01:04:31;;;;;;;10.05;8.55;;;;;;;22.09;51.79;95574.47;5010828;28;20025;-64
2021/08/21 01:06:59;;;;;;;10.63;9.52;;;;;;;22.15;51.73;95585.81;5030472;28;20035;-63
2021/08/21 01:09:25;;;;;;;8.18;7.45;;;;;;;22.15;51.86;95592.00;5028295;28;20022;-63
2021/08/21 01:11:50;;;;;;;8.48;7.78;;;;;;;22.11;51.73;95588.50;5028524;28;20040;-64
2021/08/21 01:14:15;;;;;;;8.50;7.80;;;;;;;22.09;51.84;95595.38;5028399;28;20034;-64
2021/08/21 01:16:41;;;;;;;9.50;8.30;;;;;;;22.04;51.58;95582.94;5028352;28;20045;-63
2021/08/21 01:19:07;;;;;;;9.27;8.48;;;;;;;22.07;51.45;95590.34;5030518;28;20047;-63
2021/08/21 01:21:32;;;;;;;8.93;8.10;;;;;;;22.03;51.50;95586.78;5028608;28;20061;-63
2021/08/21 01:23:58;;;;;;;8.52;7.72;;;;;;;21.91;51.58;95573.47;5010471;28;20073;-64
2021/08/21 01:26:24;;;;;;;8.73;7.82;;;;;;;22.00;51.60;95587.50;5027896;28;20109;-63
2021/08/21 01:28:49;;;;;;;9.18;8.27;;;;;;;22.01;51.37;95589.09;5028496;28;20040;-64
2021/08/21 01:31:15;;;;;;;10.80;8.07;;;;;;;21.87;51.52;95581.53;5012496;28;20120;-63
2021/08/21 01:33:41;;;;;;;10.07;8.45;;;;;;;21.93;51.38;95588.19;5027619;28;20033;-64
2021/08/21 01:36:07;;;;;;;9.27;8.40;;;;;;;21.87;51.72;95594.31;5028155;28;20057;-64
2021/08/21 01:38:32;;;;;;;7.97;6.97;;;;;;;21.78;51.81;95592.63;5028449;28;20092;-64
2021/08/21 01:40:58;;;;;;;7.20;6.63;;;;;;;21.83;51.62;95593.47;5027701;28;20041;-64
2021/08/21 01:43:23;;;;;;;11.57;8.35;;;;;;;21.66;51.80;95573.91;5010467;28;20502;-64
2021/08/21 01:45:49;;;;;;;7.63;6.93;;;;;;;21.74;51.74;95589.09;5029671;28;20025;-64
2021/08/21 01:48:15;;;;;;;8.30;7.57;;;;;;;21.77;51.58;95587.59;5028247;28;20538;-63
2021/08/21 01:50:40;;;;;;;8.65;7.22;;;;;;;21.74;51.66;95585.59;5010580;28;20415;-63
2021/08/21 01:53:11;;;;;;;8.57;7.75;;;;;;;21.66;51.50;95584.72;5028182;28;20049;-63
2021/08/21 01:55:36;;;;;;;10.05;7.22;;;;;;;21.70;51.50;95587.47;5027312;28;20104;-63
2021/08/21 01:58:02;;;;;;;8.10;7.28;;;;;;;21.70;51.62;95588.28;5029890;28;20446;-63
2021/08/21 02:00:28;;;;;;;8.55;7.80;;;;;;;21.58;51.88;95576.84;5028209;28;20559;-64
2021/08/21 02:02:57;;;;;;;7.63;6.60;;;;;;;21.59;51.81;95584.59;5028221;28;20041;-64
2021/08/21 02:05:24;;;;;;;7.63;6.93;;;;;;;21.62;51.68;95578.47;5027748;28;20045;-63
2021/08/21 02:07:50;;;;;;;8.90;7.95;;;;;;;21.60;51.75;95582.66;5028047;28;20124;-63
2021/08/21 02:10:17;;;;;;;7.97;7.00;;;;;;;21.63;51.64;95582.72;5029426;28;20112;-63
2021/08/21 02:12:43;;;;;;;9.43;7.90;;;;;;;21.60;51.55;95577.25;5028411;28;20116;-63
2021/08/21 02:15:12;;;;;;;8.10;7.07;;;;;;;21.52;51.58;95579.88;5027747;28;20674;-64
2021/08/21 02:17:38;;;;;;;8.80;7.95;;;;;;;21.54;51.73;95582.97;5027857;28;20042;-63
2021/08/21 02:20:11;;;;;;;8.93;7.07;;;;;;;21.65;51.37;95585.88;5028021;28;20447;-63
2021/08/21 02:22:41;;;;;;;8.60;7.70;;;;;;;21.60;51.33;95590.78;5027894;28;20028;-63
2021/08/21 02:25:08;;;;;;;11.02;6.82;;;;;;;21.60;51.29;95580.78;5028862;28;20483;-62
2021/08/21 02:27:38;;;;;;;7.38;6.45;;;;;;;21.61;51.10;95585.03;5027520;28;20038;-63
2021/08/21 02:30:05;;;;;;;8.43;6.72;;;;;;;21.49;51.63;95586.00;5027852;28;20103;-63
2021/08/21 02:32:31;;;;;;;7.97;7.28;;;;;;;21.38;51.63;95576.94;5027730;28;20124;-63
2021/08/21 02:34:56;;;;;;;7.47;6.82;;;;;;;21.47;51.67;95588.28;5028046;28;20129;-65
2021/08/21 02:37:21;;;;;;;8.90;8.00;;;;;;;21.44;51.82;95593.63;5028034;28;20053;-63
2021/08/21 02:39:47;;;;;;;8.95;7.47;;;;;;;21.43;51.75;95589.38;5028526;28;20174;-63
2021/08/21 02:42:13;;;;;;;9.88;8.35;;;;;;;21.45;51.80;95581.69;5027136;28;20041;-63
2021/08/21 02:44:38;;;;;;;7.95;7.20;;;;;;;21.47;51.69;95587.50;5029075;28;20394;-63
2021/08/21 02:47:04;;;;;;;8.23;7.43;;;;;;;21.39;51.60;95564.97;5031318;28;20040;-63
2021/08/21 02:49:29;;;;;;;7.93;7.05;;;;;;;21.45;51.58;95574.34;5031113;28;20049;-63
2021/08/21 02:51:54;;;;;;;8.63;7.82;;;;;;;21.37;51.64;95564.53;5033317;28;20364;-66
2021/08/21 02:54:20;;;;;;;8.40;7.68;;;;;;;21.43;51.75;95578.56;5030528;28;20069;-64
2021/08/21 02:56:45;;;;;;;7.88;7.18;;;;;;;21.44;51.45;95572.00;5030728;28;20037;-64
2021/08/21 02:59:10;;;;;;;7.28;6.63;;;;;;;21.42;51.51;95574.28;5031083;28;20045;-63
2021/08/21 03:01:36;;;;;;;7.97;7.15;;;;;;;21.38;51.36;95563.41;5031159;28;23724;-63
2021/08/21 03:04:01;;;;;;;8.23;7.63;;;;;;;21.37;51.63;95566.47;5032888;28;20048;-63
2021/08/21 03:06:26;;;;;;;6.72;6.07;;;;;;;21.51;51.50;95574.81;5030614;28;20079;-63
2021/08/21 03:08:52;;;;;;;7.65;6.35;;;;;;;21.54;51.35;95579.50;5013296;28;20045;-64
2021/08/21 03:11:17;;;;;;;6.82;6.20;;;;;;;21.53;51.27;95583.34;5017778;28;20081;-63
2021/08/21 03:13:42;;;;;;;6.72;5.95;;;;;;;21.41;51.06;95561.91;5030664;28;20041;-63
2021/08/21 03:16:08;;;;;;;7.63;6.20;;;;;;;21.40;51.44;95571.19;5014590;28;20125;-63
2021/08/21 03:18:33;;;;;;;7.47;6.78;;;;;;;21.38;51.31;95579.63;5030830;28;20072;-63
2021/08/21 03:20:58;;;;;;;7.75;7.05;;;;;;;21.40;51.45;95582.00;5030796;28;20088;-63
2021/08/21 03:23:24;;;;;;;7.60;6.90;;;;;;;21.37;51.41;95580.00;5030694;28;20038;-64
2021/08/21 03:25:49;;;;;;;8.38;7.57;;;;;;;21.42;51.31;95575.06;5029831;28;20069;-63
2021/08/21 03:28:15;;;;;;;7.38;6.60;;;;;;;21.50;51.23;95587.59;5032329;28;20026;-63
2021/08/21 03:30:40;;;;;;;7.13;6.50;;;;;;;21.48;51.20;95572.84;5012623;28;20099;-64
2021/08/21 03:33:08;;;;;;;8.68;6.47;;;;;;;21.58;51.02;95577.63;5012749;28;20092;-63
2021/08/21 03:35:33;;;;;;;7.72;7.07;;;;;;;21.59;51.03;95581.13;5029983;28;20034;-64
2021/08/21 03:37:59;;;;;;;8.63;7.93;;;;;;;21.59;50.88;95581.13;5030318;28;20042;-63
2021/08/21 03:40:24;;;;;;;8.30;7.50;;;;;;;21.53;50.70;95569.81;5029931;28;20025;-64
2021/08/21 03:42:49;;;;;;;9.45;8.52;;;;;;;21.03;50.96;95510.25;5032398;28;20419;-64
2021/08/21 03:45:15;;;;;;;7.78;7.10;;;;;;;21.38;51.42;95578.84;5030249;28;20033;-63
2021/08/21 03:47:40;;;;;;;8.65;7.95;;;;;;;21.42;51.37;95591.31;5030108;28;20033;-63
2021/08/21 03:50:06;;;;;;;9.70;8.77;;;;;;;21.47;51.31;95592.94;5030023;28;20041;-64
2021/08/21 03:52:31;;;;;;;8.75;7.93;;;;;;;21.49;51.43;95596.03;5030017;28;20029;-63
2021/08/21 03:54:58;;;;;;;9.98;8.98;;;;;;;21.50;51.42;95592.22;5031330;28;20112;-64
2021/08/21 03:57:24;;;;;;;10.93;8.32;;;;;;;21.44;51.49;95580.09;5020796;28;20037;-64
2021/08/21 03:59:49;;;;;;;9.35;8.00;;;;;;;21.42;51.67;95579.69;5030016;28;20046;-64
2021/08/21 04:02:14;;;;;;;11.35;8.50;;;;;;;21.44;51.63;95593.63;5029972;28;20033;-64
2021/08/21 04:04:40;;;;;;;10.20;9.27;;;;;;;21.49;51.36;95588.69;5029778;28;20471;-64
2021/08/21 04:07:05;;;;;;;10.20;9.25;;;;;;;21.46;51.39;95575.13;5031612;28;20025;-63
2021/08/21 04:09:30;;;;;;;9.55;8.70;;;;;;;21.47;51.24;95590.22;5029652;28;20671;-64
2021/08/21 04:11:56;;;;;;;8.30;7.53;;;;;;;21.47;51.36;95590.22;5029646;28;20077;-64
2021/08/21 04:14:21;;;;;;;9.93;9.02;;;;;;;21.40;51.45;95590.13;5029551;28;20042;-64
2021/08/21 04:16:46;;;;;;;9.95;8.90;;;;;;;21.43;51.43;95586.66;5029623;28;20122;-63
2021/08/21 04:19:12;;;;;;;11.00;9.80;;;;;;;21.39;51.39;95573.06;5031580;28;20029;-64
2021/08/21 04:21:39;;;;;;;9.15;8.35;;;;;;;21.28;51.55;95572.88;5029616;28;20590;-63
2021/08/21 04:24:05;;;;;;;7.40;6.78;;;;;;;21.34;51.45;95583.44;5029066;28;20034;-63
2021/08/21 04:26:30;;;;;;;7.63;6.97;;;;;;;21.33;51.79;95595.41;5028837;28;20384;-63
2021/08/21 04:28:56;;;;;;;9.30;7.93;;;;;;;21.35;51.88;95590.41;5029583;28;20033;-63
2021/08/21 04:31:21;;;;;;;9.35;8.15;;;;;;;21.38;51.79;95587.75;5029303;28;20070;-63
2021/08/21 04:33:46;;;;;;;8.38;7.68;;;;;;;21.38;51.63;95579.63;5031256;28;20022;-63
2021/08/21 04:36:12;;;;;;;7.53;6.32;;;;;;;21.46;51.68;95602.19;5028837;28;20033;-63
2021/08/21 04:38:37;;;;;;;10.40;9.13;;;;;;;21.37;51.79;95591.59;5011354;28;20134;-63
2021/08/21 04:41:02;;;;;;;11.05;8.40;;;;;;;21.53;51.51;95602.28;5028642;28;20068;-64
2021/08/21 04:43:28;;;;;;;7.85;7.15;;;;;;;21.43;51.84;95605.63;5011445;28;20491;-64
2021/08/21 04:45:53;;;;;;;7.55;6.85;;;;;;;21.42;51.75;95588.59;5030827;28;20387;-64
2021/08/21 04:48:18;;;;;;;8.05;6.55;;;;;;;21.59;51.43;95600.84;5029142;28;20455;-64
2021/08/21 04:50:44;;;;;;;7.47;6.88;;;;;;;21.75;51.22;95608.81;5029050;28;20045;-64
2021/08/21 04:53:09;;;;;;;6.88;6.18;;;;;;;21.75;50.98;95603.41;5027705;28;20037;-63
2021/08/21 04:55:34;;;;;;;7.78;7.07;;;;;;;21.82;51.08;95605.44;5028020;28;20056;-63
2021/08/21 04:58:00;;;;;;;7.28;6.57;;;;;;;21.99;50.83;95607.63;5030727;28;20036;-63
2021/08/21 05:00:28;;;;;;;7.13;6.45;;;;;;;22.05;50.47;95609.63;5027772;28;20061;-64
2021/08/21 05:02:57;;;;;;;6.72;6.10;;;;;;;22.17;50.31;95618.75;5028854;28;20029;-64
2021/08/21 05:05:22;;;;;;;7.20;6.55;;;;;;;22.20;50.23;95610.66;5028734;28;20037;-64
2021/08/21 05:07:48;;;;;;;7.18;6.25;;;;;;;22.37;50.19;95613.94;5028683;28;20037;-64
2021/08/21 05:10:14;;;;;;;7.15;6.55;;;;;;;22.37;49.98;95605.81;5030234;28;20035;-64
2021/08/21 05:12:39;;;;;;;6.45;5.95;;;;;;;22.52;50.05;95613.78;5028308;28;20049;-64
2021/08/21 05:15:06;;;;;;;7.00;6.07;;;;;;;22.70;49.66;95624.06;5028423;28;20037;-64
2021/08/21 05:17:32;;;;;;;6.32;5.82;;;;;;;22.74;49.42;95627.59;5027144;28;20048;-64
2021/08/21 05:20:04;;;;;;;6.80;6.20;;;;;;;22.67;49.18;95617.41;5028743;28;20392;-64
2021/08/21 05:22:40;;;;;;;6.22;5.47;;;;;;;22.82;49.40;95623.78;5028450;28;20068;-64
2021/08/21 05:25:06;;;;;;;7.13;6.43;;;;;;;22.84;49.55;95632.34;5029277;28;20033;-64
2021/08/21 05:27:32;;;;;;;7.22;6.63;;;;;;;22.87;49.12;95630.81;5028251;28;20037;-64
2021/08/21 05:29:58;;;;;;;6.95;6.25;;;;;;;23.01;48.81;95639.94;5028552;28;20550;-64
2021/08/21 05:32:24;;;;;;;7.25;6.68;;;;;;;22.99;49.22;95634.09;5028458;28;20033;-64
2021/08/21 05:34:49;;;;;;;7.60;6.80;;;;;;;22.98;49.49;95632.53;5028229;28;20491;-64
2021/08/21 05:37:14;;;;;;;7.13;6.47;;;;;;;23.04;49.52;95641.91;5030231;28;20071;-63
2021/08/21 05:39:40;;;;;;;7.15;6.45;;;;;;;23.12;49.32;95634.59;5028476;28;20030;-64
2021/08/21 05:42:05;;;;;;;6.63;5.90;;;;;;;23.17;48.89;95633.50;5027762;28;20436;-64
2021/08/21 05:44:30;;;;;;;7.50;6.80;;;;;;;23.32;48.56;95644.09;5028148;28;20482;-64
2021/08/21 05:46:56;;;;;;;6.72;6.22;;;;;;;23.32;48.63;95638.69;5028261;28;20492;-63
2021/08/21 05:49:21;;;;;;;6.28;5.78;;;;;;;23.42;48.14;95637.22;5028421;28;20037;-64
2021/08/21 05:51:46;;;;;;;8.48;6.53;;;;;;;23.51;48.01;95629.56;5030254;28;20033;-65
2021/08/21 05:54:12;;;;;;;6.63;6.13;;;;;;;23.62;47.95;95632.34;5028106;28;20053;-64
2021/08/21 05:56:37;;;;;;;7.88;5.93;;;;;;;23.77;48.21;95644.91;5010246;28;20522;-64
2021/08/21 05:59:03;;;;;;;6.07;5.55;;;;;;;23.85;47.76;95643.81;5010956;28;20065;-64
2021/08/21 06:01:29;;;;;;;5.68;5.18;;;;;;;23.64;47.61;95643.63;5028105;28;20116;-64
2021/08/21 06:03:55;;;;;;;7.88;5.30;;;;;;;23.74;46.86;95642.94;5030053;28;20419;-64
2021/08/21 06:06:21;;;;;;;5.55;5.15;;;;;;;23.94;46.98;95646.19;5027970;28;20041;-64
2021/08/21 06:08:47;;;;;;;6.55;5.05;;;;;;;24.09;46.79;95652.50;5028305;28;20030;-65
2021/08/21 06:11:12;;;;;;;5.63;5.13;;;;;;;24.22;46.45;95653.00;5027554;28;20045;-64
2021/08/21 06:13:38;;;;;;;5.85;5.28;;;;;;;23.96;46.22;95643.13;5028048;28;20064;-64
2021/08/21 06:16:03;;;;;;;5.88;5.30;;;;;;;24.28;46.37;95648.75;5029740;28;20403;-67
2021/08/21 06:18:31;;;;;;;5.30;4.80;;;;;;;24.39;46.48;95655.06;5028435;28;20088;-79
2021/08/21 06:20:56;;;;;;;6.95;4.93;;;;;;;24.49;46.06;95627.13;5014202;28;20045;-67
2021/08/21 06:23:22;;;;;;;5.95;4.60;;;;;;;24.79;45.89;95653.31;5032298;28;20038;-69
2021/08/21 06:25:47;;;;;;;8.52;5.00;;;;;;;24.97;45.33;95661.50;5013655;28;20029;-69
2021/08/21 06:28:14;;;;;;;5.45;4.95;;;;;;;24.74;45.42;95599.25;5032412;28;20033;-71
2021/08/21 06:30:40;;;;;;;5.20;4.80;;;;;;;25.20;45.47;95656.56;5030758;28;20046;-66
2021/08/21 06:33:05;;;;;;;5.10;4.60;;;;;;;25.23;44.82;95647.59;5032346;28;20047;-67
2021/08/21 06:35:30;;;;;;;5.03;4.53;;;;;;;25.34;44.93;95653.09;5031634;28;20052;-67
2021/08/21 06:37:56;;;;;;;5.13;4.75;;;;;;;25.41;45.03;95648.44;5032108;28;20425;-67
2021/08/21 06:40:21;;;;;;;6.53;5.57;;;;;;;25.55;44.74;95658.56;5031554;28;20025;-67
2021/08/21 06:42:47;;;;;;;5.47;5.07;;;;;;;25.60;44.35;95660.91;5032659;28;20105;-68
2021/08/21 06:45:12;;;;;;;6.32;4.68;;;;;;;25.74;44.41;95654.66;5030804;28;20086;-69
2021/08/21 06:47:37;;;;;;;5.38;4.97;;;;;;;25.74;44.27;95646.50;5013647;28;20092;-70
2021/08/21 06:50:05;;;;;;;5.55;5.10;;;;;;;25.84;43.92;95653.13;5031502;28;20061;-68
2021/08/21 06:52:30;;;;;;;5.65;4.85;;;;;;;25.86;43.76;95643.41;5031051;28;20056;-69
2021/08/21 06:54:56;;;;;;;6.35;5.20;;;;;;;25.75;43.96;95639.16;5033093;28;20052;-68
2021/08/21 06:57:21;;;;;;;7.07;5.18;;;;;;;25.50;44.38;95642.59;5027992;28;20528;-68
2021/08/21 06:59:47;;;;;;;5.78;5.25;;;;;;;25.55;45.02;95660.50;5025541;28;20495;-68
2021/08/21 07:02:12;;;;;;;5.22;4.82;;;;;;;25.93;44.59;95646.13;5030822;28;20113;-69
2021/08/21 07:04:38;;;;;;;5.93;5.10;;;;;;;26.12;44.50;95647.66;5030997;28;20579;-68
2021/08/21 07:07:03;;;;;;;5.65;4.97;;;;;;;26.38;43.85;95659.31;5032875;28;20387;-68
2021/08/21 07:09:29;;;;;;;5.05;4.55;;;;;;;26.54;43.75;95656.19;5031158;28;20111;-68
2021/08/21 07:11:54;;;;;;;6.10;4.72;;;;;;;26.68;43.75;95656.91;5030649;28;20034;-68
2021/08/21 07:14:20;;;;;;;5.60;5.18;;;;;;;26.75;43.11;95649.88;5030471;28;20778;-68
2021/08/21 07:16:45;;;;;;;5.13;4.72;;;;;;;26.87;42.90;95652.13;5030747;28;20044;-68
2021/08/21 07:19:11;;;;;;;5.07;4.68;;;;;;;26.95;42.70;95648.22;5032962;28;20029;-67
2021/08/21 07:21:36;;;;;;;5.40;4.93;;;;;;;27.07;42.69;95657.91;5012764;28;20040;-68
2021/08/21 07:24:01;;;;;;;5.80;5.22;;;;;;;27.14;42.31;95655.19;5030721;28;20042;-68
2021/08/21 07:26:27;;;;;;;5.25;4.85;;;;;;;27.12;42.92;95638.41;5030064;28;20411;-68
2021/08/21 07:28:52;;;;;;;8.15;4.80;;;;;;;27.32;42.37;95653.09;5026080;28;20030;-69
2021/08/21 07:31:17;;;;;;;6.07;4.78;;;;;;;27.44;42.04;95654.59;5029161;28;20495;-66
2021/08/21 07:33:43;;;;;;;5.18;4.68;;;;;;;27.55;41.53;95643.59;5032285;28;20022;-68
2021/08/21 07:36:08;;;;;;;5.07;4.57;;;;;;;27.74;41.58;95659.47;5030192;28;20069;-68
2021/08/21 07:38:34;;;;;;;5.78;4.72;;;;;;;27.77;40.82;95661.41;5030218;28;20403;-68
2021/08/21 07:40:59;;;;;;;5.43;4.90;;;;;;;27.72;40.54;95639.97;5030033;28;20096;-68
2021/08/21 07:43:25;;;;;;;4.88;4.47;;;;;;;27.85;40.72;95649.25;5029948;28;20100;-74
2021/08/21 07:45:50;;;;;;;8.52;5.07;;;;;;;27.99;41.05;95665.50;5032169;28;20025;-69
2021/08/21 07:48:16;;;;;;;4.97;4.55;;;;;;;28.05;40.75;95638.53;5030328;28;20037;-69
2021/08/21 07:50:43;;;;;;;4.88;4.57;;;;;;;28.19;40.34;95643.06;5030296;28;20132;-69
2021/08/21 07:53:08;;;;;;;4.85;4.55;;;;;;;28.30;40.35;95651.94;5029864;28;20045;-70
2021/08/21 07:55:34;;;;;;;5.43;4.95;;;;;;;28.37;40.10;95649.19;5029629;28;20021;-68
2021/08/21 07:57:59;;;;;;;5.15;4.30;;;;;;;28.47;40.10;95650.25;5030454;28;20048;-69
2021/08/21 08:00:24;;;;;;;5.53;5.03;;;;;;;28.63;39.81;95650.47;5011583;28;20088;-69
2021/08/21 08:02:50;;;;;;;5.13;4.72;;;;;;;28.75;39.26;95649.91;5029792;28;20114;-69
2021/08/21 08:05:15;;;;;;;5.70;5.30;;;;;;;28.48;39.27;95652.56;5029730;28;20134;-69
2021/08/21 08:07:41;;;;;;;5.10;4.70;;;;;;;28.78;38.86;95662.03;5029726;28;20174;-68
2021/08/21 08:10:07;;;;;;;6.75;4.82;;;;;;;28.81;38.57;95655.69;5013961;28;20535;-68
2021/08/21 08:12:32;;;;;;;5.10;4.53;;;;;;;29.07;38.19;95661.69;5029407;28;20055;-69
2021/08/21 08:14:58;;;;;;;5.07;4.68;;;;;;;29.19;38.24;95663.88;5029205;28;20488;-69
2021/08/21 08:17:24;;;;;;;5.10;4.70;;;;;;;29.22;37.51;95652.09;5029570;28;20046;-69
2021/08/21 08:19:50;;;;;;;4.63;4.32;;;;;;;29.35;37.41;95666.78;5011799;28;20050;-69
2021/08/21 08:22:15;;;;;;;5.30;4.63;;;;;;;29.44;37.40;95661.56;5031240;28;20036;-69
2021/08/21 08:24:40;;;;;;;5.13;4.72;;;;;;;29.41;37.13;95661.59;5029435;28;20042;-69
2021/08/21 08:27:06;;;;;;;4.80;4.40;;;;;;;29.39;37.75;95670.25;5028898;28;20036;-68
2021/08/21 08:29:31;;;;;;;4.60;4.25;;;;;;;29.75;37.49;95670.53;5029186;28;20039;-68
2021/08/21 08:31:56;;;;;;;5.00;4.60;;;;;;;28.42;39.11;95661.63;5027614;28;20069;-69
2021/08/21 08:34:22;;;;;;;4.75;4.40;;;;;;;28.46;39.09;95651.44;5027893;28;20112;-69
2021/08/21 08:36:47;;;;;;;5.00;4.60;;;;;;;28.08;40.12;95661.53;5031080;28;20025;-69
2021/08/21 08:39:12;;;;;;;5.30;4.78;;;;;;;29.28;38.84;95677.84;5029667;28;20029;-69
2021/08/21 08:41:41;;;;;;;4.75;4.45;;;;;;;29.88;37.50;95673.44;5027642;28;20068;-68
2021/08/21 08:44:10;;;;;;;4.97;4.53;;;;;;;29.77;36.87;95659.13;5028702;28;20080;-68
2021/08/21 08:46:37;;;;;;;5.07;4.57;;;;;;;30.07;36.80;95652.75;5028676;28;20017;-69
2021/08/21 08:49:02;;;;;;;5.43;4.75;;;;;;;30.42;36.14;95670.59;5030832;28;20032;-69
2021/08/21 08:51:28;;;;;;;5.47;4.82;;;;;;;30.44;36.24;95673.69;5011257;28;20037;-69
2021/08/21 08:53:53;;;;;;;5.05;4.53;;;;;;;30.61;34.94;95647.09;5011193;28;20038;-69
2021/08/21 08:56:19;;;;;;;4.78;4.40;;;;;;;30.95;34.55;95668.03;5028669;28;20395;-70
2021/08/21 08:58:44;;;;;;;5.00;4.65;;;;;;;30.88;34.11;95665.44;5028522;28;20063;-70
2021/08/21 09:01:09;;;;;;;5.70;4.70;;;;;;;30.61;33.63;95649.06;5030761;28;20025;-69
2021/08/21 09:03:35;;;;;;;5.57;5.07;;;;;;;30.62;34.93;95659.63;5028931;28;20377;-69
2021/08/21 09:06:00;;;;;;;4.78;4.38;;;;;;;31.12;34.21;95652.38;5028342;28;20045;-69
2021/08/21 09:08:27;;;;;;;4.85;4.47;;;;;;;31.43;34.00;95677.63;5028929;28;20668;-68
2021/08/21 09:10:55;;;;;;;6.75;4.43;;;;;;;31.65;33.48;95658.69;5028723;28;20129;-69
2021/08/21 09:13:20;;;;;;;4.75;4.35;;;;;;;30.71;34.33;95670.88;5028209;28;20502;-70
2021/08/21 09:15:52;;;;;;;4.68;4.38;;;;;;;31.58;33.26;95656.84;5029884;28;20017;-69
2021/08/21 09:18:29;;;;;;;4.90;4.28;;;;;;;31.53;33.27;95666.41;5028689;28;20033;-70
2021/08/21 09:20:58;;;;;;;4.50;4.20;;;;;;;31.93;32.70;95666.28;5028565;28;20033;-71
2021/08/21 09:23:37;;;;;;;4.68;4.28;;;;;;;32.12;32.66;95669.38;5028311;28;20033;-68
2021/08/21 09:26:08;;;;;;;4.10;3.80;;;;;;;32.30;31.78;95664.19;5027777;28;20041;-67
2021/08/21 09:28:35;;;;;;;4.45;4.15;;;;;;;32.48;31.65;95659.00;5027592;28;20026;-69
2021/08/21 09:31:07;;;;;;;4.50;4.20;;;;;;;32.53;31.53;95652.97;5030009;28;20538;-69
2021/08/21 09:33:33;;;;;;;4.82;4.38;;;;;;;32.84;31.08;95650.53;5028393;28;20040;-70
2021/08/21 09:35:59;;;;;;;4.97;4.57;;;;;;;33.13;30.21;95665.50;5027933;28;20042;-70
2021/08/21 09:38:34;;;;;;;4.07;3.78;;;;;;;32.95;30.26;95666.00;5028038;28;20069;-70
2021/08/21 09:41:08;;;;;;;4.57;4.13;;;;;;;33.07;28.97;95663.28;5028422;28;20407;-70
2021/08/21 09:43:36;;;;;;;4.00;3.65;;;;;;;33.19;29.82;95656.25;5017853;28;20029;-70
2021/08/21 09:46:10;;;;;;;4.78;4.30;;;;;;;33.18;29.26;95667.72;5029382;28;20071;-67
2021/08/21 09:48:53;;;;;;;4.60;3.63;;;;;;;33.02;30.00;95665.81;5028009;28;20137;-71
2021/08/21 09:51:32;;;;;;;4.53;4.22;;;;;;;33.05;30.85;95662.19;5027201;28;20491;-70
2021/08/21 09:53:59;;;;;;;4.03;3.67;;;;;;;32.59;29.56;95653.19;5028556;28;20057;-71
2021/08/21 09:56:36;;;;;;;5.60;3.55;;;;;;;32.09;28.91;95655.28;5032084;28;20039;-73
2021/08/21 09:59:02;;;;;;;4.47;3.53;;;;;;;32.42;29.14;95658.00;5018991;28;20046;-68
2021/08/21 10:01:29;;;;;;;4.38;4.07;;;;;;;32.75;29.57;95660.63;5031493;28;20053;-67
2021/08/21 10:03:56;;;;;;;3.90;3.60;;;;;;;32.27;28.93;95656.78;5033936;28;20025;-72
2021/08/21 10:06:23;;;;;;;3.60;3.30;;;;;;;31.93;29.75;95658.00;5032011;28;20125;-73
2021/08/21 10:08:50;;;;;;;4.30;3.88;;;;;;;32.23;29.31;95664.34;5032225;28;20034;-68
2021/08/21 10:11:16;;;;;;;4.32;3.85;;;;;;;32.19;29.43;95663.66;5032307;28;20029;-71
2021/08/21 10:13:43;;;;;;;3.72;3.42;;;;;;;32.09;29.32;95644.25;5031611;28;20033;-72
2021/08/21 10:16:09;;;;;;;4.60;4.20;;;;;;;31.72;31.00;95629.03;4996401;28;20029;-73
2021/08/21 10:18:35;;;;;;;4.70;4.30;;;;;;;31.87;30.49;95634.97;5012962;28;20212;-73
2021/08/21 10:21:02;;;;;;;4.82;4.25;;;;;;;31.81;30.52;95653.22;5011048;28;20038;-64
2021/08/21 10:23:28;;;;;;;4.97;4.07;;;;;;;30.99;32.17;95655.00;5011777;28;20038;-64
2021/08/21 10:26:02;;;;;;;4.60;4.30;;;;;;;31.45;32.11;95648.53;5011461;28;20108;-64
2021/08/21 10:28:35;;;;;;;4.57;4.18;;;;;;;31.67;31.42;95642.53;5021674;28;20072;-65
2021/08/21 10:31:01;;;;;;;4.85;4.35;;;;;;;31.56;31.24;95648.28;5033040;28;20029;-66
2021/08/21 10:33:29;;;;;;;4.20;3.80;;;;;;;31.57;31.44;95630.56;5031171;28;20179;-65
2021/08/21 10:35:56;;;;;;;4.45;4.05;;;;;;;31.67;31.44;95623.28;5030946;28;20029;-65
2021/08/21 10:38:33;;;;;;;4.63;4.32;;;;;;;31.72;30.94;95647.50;5031420;28;20095;-65
2021/08/21 10:41:27;;;;;;;4.78;4.22;;;;;;;31.30;32.62;95641.81;5013443;28;20043;-66
2021/08/21 10:43:55;;;;;;;4.63;4.32;;;;;;;31.44;32.00;95638.72;5030745;28;20048;-65
2021/08/21 10:46:29;;;;;;;4.45;4.15;;;;;;;31.74;31.88;95636.88;5030810;28;20017;-69
2021/08/21 10:48:56;;;;;;;4.03;3.72;;;;;;;31.89;32.35;95634.53;5033142;28;20045;-70
2021/08/21 10:51:30;;;;;;;5.72;4.47;;;;;;;31.98;32.42;95646.50;5031090;28;20116;-68
2021/08/21 10:53:55;;;;;;;4.20;3.90;;;;;;;32.00;31.98;95638.59;5031061;28;20060;-69
2021/08/21 10:56:36;;;;;;;4.38;4.07;;;;;;;32.08;32.00;95639.94;5030713;28;20116;-69
2021/08/21 10:59:02;;;;;;;4.55;4.15;;;;;;;30.86;32.01;95635.63;5030840;28;20053;-69
2021/08/21 11:01:28;;;;;;;3.97;3.67;;;;;;;30.57;32.42;95634.66;5030750;28;20025;-69
2021/08/21 11:03:54;;;;;;;4.38;4.05;;;;;;;29.97;34.22;95648.22;5032964;28;20041;-69
2021/08/21 11:06:48;;;;;;;4.47;4.18;;;;;;;30.74;33.16;95636.28;5030492;28;20061;-69
2021/08/21 11:09:23;;;;;;;4.50;4.20;;;;;;;30.52;33.39;95639.44;5004573;28;20069;-69
2021/08/21 11:11:51;;;;;;;5.13;4.57;;;;;;;31.16;32.72;95631.09;5030917;28;20037;-70
2021/08/21 11:14:39;;;;;;;4.65;4.25;;;;;;;31.71;33.12;95637.72;5030178;28;20037;-69
2021/08/21 11:17:05;;;;;;;5.13;4.63;;;;;;;31.60;32.84;95637.19;5009584;28;20460;-69
2021/08/21 11:19:39;;;;;;;4.82;4.43;;;;;;;31.59;31.73;95628.19;5010960;28;20033;-71
2021/08/21 11:22:13;;;;;;;4.95;4.57;;;;;;;31.63;31.34;95630.81;5012779;28;20392;-69
2021/08/21 11:24:53;;;;;;;4.30;4.00;;;;;;;31.38;31.89;95625.91;5011681;28;20496;-77
2021/08/21 11:27:30;;;;;;;4.53;4.15;;;;;;;30.72;32.55;95633.97;5011213;28;20117;-72
2021/08/21 11:30:18;;;;;;;4.72;4.00;;;;;;;30.31;32.55;95639.06;5022431;28;20041;-69